Time;durP1;ratioP1;P1;durP2;ratioP2;P2;SDS_P1;SDS_P2;PMS_P1;PMS_P2;Temp;Humidity;BMP_temperature;BMP_pressure;BME280_temperature;BME280_humidity;BME280_pressure;Samples;Min_cycle;Max_cycle;Signal;HPM_P1;HPM_P2
2024/03/06 00:00:36;;;;;;;6.45;3.25;;;;;;;5.94;74.45;98639.28;4911959;28;104024;-59
2024/03/06 00:03:06;;;;;;;8.50;3.25;;;;;;;5.74;74.30;98649.81;4917839;28;102958;-61
2024/03/06 00:05:34;;;;;;;7.38;2.88;;;;;;;5.81;74.97;98645.66;4903946;28;108043;-60
2024/03/06 00:08:03;;;;;;;8.40;3.50;;;;;;;5.71;75.10;98649.25;4926109;28;103305;-60
2024/03/06 00:10:31;;;;;;;7.35;2.60;;;;;;;5.86;75.11;98647.06;4922309;28;103676;-60
2024/03/06 00:13:01;;;;;;;7.72;3.17;;;;;;;5.80;74.43;98649.28;4917785;28;103103;-60
2024/03/06 00:15:29;;;;;;;6.82;3.05;;;;;;;5.84;74.90;98638.47;4918569;28;104178;-61
2024/03/06 00:17:58;;;;;;;7.28;3.00;;;;;;;5.91;74.62;98637.78;4924355;28;103956;-60
2024/03/06 00:20:28;;;;;;;9.73;3.15;;;;;;;5.91;74.89;98640.41;4920579;28;102859;-64
2024/03/06 00:22:56;;;;;;;7.80;3.40;;;;;;;5.96;74.89;98645.22;4925620;28;102949;-64
2024/03/06 00:25:24;;;;;;;6.85;3.10;;;;;;;5.97;74.79;98644.25;4890999;28;103390;-64
2024/03/06 00:27:54;;;;;;;6.68;2.85;;;;;;;5.88;75.33;98652.97;4912858;28;103967;-63
2024/03/06 00:30:26;;;;;;;7.15;3.35;;;;;;;5.91;75.22;98655.34;4916569;28;103222;-64
2024/03/06 00:32:54;;;;;;;8.52;3.40;;;;;;;5.92;75.57;98657.00;4921036;28;103165;-63
2024/03/06 00:35:23;;;;;;;7.35;3.40;;;;;;;5.88;75.76;98663.50;4916593;28;105407;-63
2024/03/06 00:37:54;;;;;;;8.48;3.78;;;;;;;5.77;76.03;98661.84;4915062;28;107315;-63
2024/03/06 00:40:23;;;;;;;6.45;3.10;;;;;;;5.80;76.11;98665.03;4933393;28;102867;-64
2024/03/06 00:42:51;;;;;;;6.38;3.42;;;;;;;5.85;75.89;98653.28;4916832;28;102756;-63
2024/03/06 00:45:20;;;;;;;6.78;3.28;;;;;;;5.89;75.48;98655.47;4913418;28;104045;-64
2024/03/06 00:47:49;;;;;;;10.55;3.72;;;;;;;5.83;75.83;98656.06;4916718;28;104170;-64
2024/03/06 00:50:18;;;;;;;6.13;3.60;;;;;;;5.81;76.38;98650.09;4915902;28;102938;-64
2024/03/06 00:52:49;;;;;;;7.53;3.50;;;;;;;5.81;76.53;98650.09;4915874;28;102923;-64
2024/03/06 00:55:17;;;;;;;7.22;3.05;;;;;;;5.90;76.43;98643.19;4918174;28;103493;-63
2024/03/06 00:57:48;;;;;;;6.13;2.70;;;;;;;5.94;76.35;98644.56;4913428;28;103250;-64
2024/03/06 01:00:17;;;;;;;5.95;3.00;;;;;;;5.95;75.66;98648.84;4912184;28;104271;-63
2024/03/06 01:02:45;;;;;;;10.68;3.40;;;;;;;5.81;76.13;98640.38;4904775;28;102906;-63
2024/03/06 01:05:14;;;;;;;6.57;3.40;;;;;;;5.74;76.67;98649.00;4917917;28;103405;-62
2024/03/06 01:07:42;;;;;;;5.20;2.60;;;;;;;5.77;76.61;98657.41;4915539;28;103207;-63
2024/03/06 01:10:11;;;;;;;6.32;2.83;;;;;;;5.88;76.87;98655.63;4913350;28;102845;-63
2024/03/06 01:12:39;;;;;;;7.97;3.03;;;;;;;5.95;76.17;98648.84;4914414;28;103244;-64
2024/03/06 01:15:07;;;;;;;7.18;3.00;;;;;;;5.98;76.51;98653.84;4908945;28;103005;-64
2024/03/06 01:17:35;;;;;;;8.25;3.40;;;;;;;6.01;76.80;98653.56;4917176;28;108056;-64
2024/03/06 01:20:06;;;;;;;11.43;4.10;;;;;;;5.98;76.33;98661.72;4915269;28;103659;-64
2024/03/06 01:22:38;;;;;;;5.75;3.00;;;;;;;5.96;76.48;98668.88;4915237;28;104079;-61
2024/03/06 01:25:07;;;;;;;7.75;3.45;;;;;;;5.96;76.26;98664.47;4909243;28;103389;-64
2024/03/06 01:27:35;;;;;;;8.20;3.33;;;;;;;5.95;76.36;98659.38;4913671;28;107887;-64
2024/03/06 01:30:05;;;;;;;9.10;3.72;;;;;;;5.86;76.41;98652.31;4912653;28;103951;-64
2024/03/06 01:32:33;;;;;;;10.45;3.30;;;;;;;5.94;77.21;98655.06;4913375;28;103266;-64
2024/03/06 01:35:01;;;;;;;8.95;3.83;;;;;;;5.78;76.71;98661.72;4917680;28;103373;-63
2024/03/06 01:37:29;;;;;;;13.27;3.92;;;;;;;5.76;77.59;98655.75;4915525;28;103353;-63
2024/03/06 01:39:59;;;;;;;8.35;3.88;;;;;;;5.56;78.25;98654.09;4909484;28;102888;-62
2024/03/06 01:42:28;;;;;;;7.47;3.33;;;;;;;5.61;78.83;98644.81;4916133;28;102748;-63
2024/03/06 01:44:58;;;;;;;8.73;4.22;;;;;;;5.56;78.19;98646.22;4920670;28;103392;-63
2024/03/06 01:47:27;;;;;;;6.05;3.00;;;;;;;5.54;78.40;98648.13;4917729;28;105097;-64
2024/03/06 01:49:55;;;;;;;9.63;2.95;;;;;;;5.47;78.32;98658.38;4919654;28;104294;-63
2024/03/06 01:52:24;;;;;;;5.13;2.60;;;;;;;5.59;78.13;98652.03;4911421;28;102941;-64
2024/03/06 01:54:52;;;;;;;4.40;2.40;;;;;;;5.67;78.08;98658.38;4908187;28;103473;-66
2024/03/06 01:57:22;;;;;;;6.88;3.03;;;;;;;5.77;77.58;98662.66;4909602;28;106931;-63
2024/03/06 01:59:50;;;;;;;9.43;3.40;;;;;;;5.22;78.72;98664.97;4938297;28;102729;-63
2024/03/06 02:02:21;;;;;;;7.28;3.53;;;;;;;4.75;80.98;98663.69;4918637;28;103942;-63
2024/03/06 02:04:49;;;;;;;13.15;4.22;;;;;;;4.68;81.46;98678.31;4919952;28;103414;-63
2024/03/06 02:07:21;;;;;;;9.55;4.00;;;;;;;4.73;81.08;98676.13;4899899;28;105401;-63
2024/03/06 02:09:49;;;;;;;12.10;4.07;;;;;;;4.60;81.76;98676.34;4924608;28;102938;-64
2024/03/06 02:12:18;;;;;;;6.07;3.50;;;;;;;4.65;81.47;98675.94;4923286;28;102681;-64
2024/03/06 02:14:50;;;;;;;6.97;3.83;;;;;;;4.72;81.42;98669.22;4922117;28;103233;-64
2024/03/06 02:17:18;;;;;;;8.38;4.00;;;;;;;4.95;80.51;98675.13;4919061;28;103253;-64
2024/03/06 02:19:45;;;;;;;6.53;3.08;;;;;;;5.09;80.22;98673.91;4917132;28;102906;-64
2024/03/06 02:22:15;;;;;;;8.13;3.08;;;;;;;5.24;79.37;98669.13;4921430;28;102791;-64
2024/03/06 02:24:46;;;;;;;9.27;3.20;;;;;;;5.30;78.74;98676.44;4927077;28;105486;-65
2024/03/06 02:27:16;;;;;;;6.60;3.20;;;;;;;5.26;78.82;98671.59;4924403;28;104719;-64
2024/03/06 02:29:44;;;;;;;5.80;3.35;;;;;;;5.25;78.92;98669.94;4918839;28;104504;-65
2024/03/06 02:32:14;;;;;;;5.03;2.90;;;;;;;5.24;79.44;98668.28;4904918;28;103312;-64
2024/03/06 02:34:42;;;;;;;5.38;2.63;;;;;;;5.35;78.72;98676.03;4906014;28;103336;-64
2024/03/06 02:37:11;;;;;;;5.07;2.80;;;;;;;5.34;78.23;98671.75;4899904;28;103791;-64
2024/03/06 02:39:40;;;;;;;6.13;2.72;;;;;;;5.32;78.61;98671.06;4910334;28;102654;-63
2024/03/06 02:42:08;;;;;;;5.07;2.72;;;;;;;5.37;78.76;98668.88;4922843;28;103589;-65
2024/03/06 02:44:36;;;;;;;8.30;3.40;;;;;;;5.28;78.32;98664.44;4919431;28;108309;-64
2024/03/06 02:47:05;;;;;;;6.97;3.00;;;;;;;5.27;78.75;98662.78;4912496;28;103413;-64
2024/03/06 02:49:36;;;;;;;4.68;2.53;;;;;;;5.32;78.49;98663.19;4909376;28;103053;-63
2024/03/06 02:52:04;;;;;;;4.55;2.38;;;;;;;5.43;78.21;98662.25;4911574;28;102960;-63
2024/03/06 02:54:32;;;;;;;6.25;2.80;;;;;;;5.45;77.82;98660.28;4918884;28;103434;-64
2024/03/06 02:57:02;;;;;;;6.07;2.22;;;;;;;5.52;77.36;98665.84;4927572;28;103266;-64
2024/03/06 02:59:32;;;;;;;4.68;2.33;;;;;;;5.55;77.77;98666.38;4926462;28;103968;-64
2024/03/06 03:02:01;;;;;;;5.45;2.40;;;;;;;5.61;77.55;98667.66;4915590;28;103418;-63
2024/03/06 03:04:29;;;;;;;5.28;2.42;;;;;;;5.58;77.36;98670.53;4910135;28;106079;-64
2024/03/06 03:07:00;;;;;;;5.63;2.55;;;;;;;5.63;77.54;98673.59;4912444;28;103218;-64
2024/03/06 03:09:30;;;;;;;5.55;2.58;;;;;;;5.60;77.53;98676.50;4910214;28;103295;-63
2024/03/06 03:11:59;;;;;;;4.80;2.50;;;;;;;5.63;77.62;98673.59;4919375;28;103366;-64
2024/03/06 03:14:28;;;;;;;8.80;2.70;;;;;;;5.62;77.42;98666.66;4927059;28;103557;-64
2024/03/06 03:16:58;;;;;;;4.45;2.50;;;;;;;5.62;78.20;98664.88;4927180;28;103374;-64
2024/03/06 03:19:26;;;;;;;4.88;2.20;;;;;;;5.65;77.94;98669.03;4921599;28;102794;-64
2024/03/06 03:21:54;;;;;;;5.43;2.72;;;;;;;5.68;77.90;98670.56;4927947;28;104562;-64
2024/03/06 03:24:26;;;;;;;6.65;2.53;;;;;;;5.69;77.64;98678.31;4921306;28;103875;-63
2024/03/06 03:27:01;;;;;;;6.80;3.00;;;;;;;5.61;77.49;98675.53;4910922;28;103111;-64
2024/03/06 03:29:31;;;;;;;8.18;3.03;;;;;;;5.52;78.09;98681.63;4910439;28;102842;-64
2024/03/06 03:31:59;;;;;;;6.65;2.72;;;;;;;5.55;78.15;98683.97;4912690;28;102801;-64
2024/03/06 03:34:27;;;;;;;6.00;2.45;;;;;;;5.55;78.06;98676.06;4912292;28;103363;-64
2024/03/06 03:36:55;;;;;;;6.72;2.67;;;;;;;5.61;78.17;98686.06;4915320;28;104293;-64
2024/03/06 03:39:24;;;;;;;6.97;2.90;;;;;;;5.60;77.84;98687.00;4921706;28;102901;-64
2024/03/06 03:41:52;;;;;;;7.97;3.40;;;;;;;5.53;77.95;98685.88;4925406;28;102711;-64
2024/03/06 03:44:20;;;;;;;5.47;2.30;;;;;;;5.61;78.37;98680.78;4925723;28;103285;-61
2024/03/06 03:46:50;;;;;;;9.30;2.85;;;;;;;5.71;77.72;98684.25;4914205;28;103241;-60
2024/03/06 03:49:18;;;;;;;7.70;2.70;;;;;;;5.68;77.61;98684.53;4908451;28;103707;-63
2024/03/06 03:51:47;;;;;;;5.78;2.55;;;;;;;5.72;77.90;98688.53;4908864;28;103013;-64
2024/03/06 03:54:15;;;;;;;4.55;2.40;;;;;;;5.77;77.69;98690.75;4912566;28;103481;-63
2024/03/06 03:56:43;;;;;;;3.17;1.95;;;;;;;5.66;78.27;98694.34;4919002;28;104600;-60
2024/03/06 03:59:11;;;;;;;5.18;2.42;;;;;;;5.73;77.69;98698.09;4923954;28;102737;-60
2024/03/06 04:01:39;;;;;;;8.10;2.38;;;;;;;5.78;77.91;98697.69;4915287;28;103187;-60
2024/03/06 04:04:09;;;;;;;5.25;2.20;;;;;;;5.82;78.08;98699.88;4919336;28;103084;-60
2024/03/06 04:06:37;;;;;;;6.45;2.50;;;;;;;5.84;77.98;98693.66;4911754;28;107992;-59
2024/03/06 04:09:14;;;;;;;5.40;2.20;;;;;;;5.79;78.28;98700.16;4921901;28;102741;-60
2024/03/06 04:11:43;;;;;;;4.40;2.20;;;;;;;5.78;77.78;98692.44;4923622;28;103140;-61
2024/03/06 04:14:11;;;;;;;4.25;2.20;;;;;;;5.79;78.48;98694.91;4918174;28;103454;-61
2024/03/06 04:16:39;;;;;;;7.13;2.58;;;;;;;5.62;79.18;98700.81;4930219;28;103311;-60
2024/03/06 04:19:09;;;;;;;7.65;2.72;;;;;;;5.64;79.16;98693.66;4927716;28;104267;-61
2024/03/06 04:21:41;;;;;;;7.05;2.70;;;;;;;5.73;79.12;98699.88;4929014;28;102782;-66
2024/03/06 04:24:10;;;;;;;8.02;2.88;;;;;;;5.63;78.70;98710.38;4907124;28;105365;-66
2024/03/06 04:26:38;;;;;;;5.90;2.33;;;;;;;5.69;78.97;98704.59;4929161;28;103285;-66
2024/03/06 04:29:06;;;;;;;6.72;2.60;;;;;;;5.69;79.01;98709.84;4932068;28;103948;-67
2024/03/06 04:31:36;;;;;;;4.05;2.15;;;;;;;5.76;78.96;98715.38;4930267;28;103660;-67
2024/03/06 04:34:05;;;;;;;5.18;2.28;;;;;;;5.69;78.71;98707.22;4935956;28;102683;-67
2024/03/06 04:36:34;;;;;;;4.38;2.20;;;;;;;5.77;78.96;98717.03;4928874;28;103238;-67
2024/03/06 04:39:07;;;;;;;3.95;2.17;;;;;;;5.67;79.16;98710.94;4925933;28;102794;-67
2024/03/06 04:41:35;;;;;;;4.72;2.58;;;;;;;5.68;79.15;98712.59;4931619;28;103017;-66
2024/03/06 04:44:03;;;;;;;5.07;2.72;;;;;;;5.62;78.95;98714.81;4933722;28;103093;-67
2024/03/06 04:46:32;;;;;;;5.93;2.30;;;;;;;5.61;78.75;98718.41;4931658;28;103736;-68
2024/03/06 04:49:00;;;;;;;6.32;2.90;;;;;;;5.69;78.90;98720.34;4928831;28;103255;-70
2024/03/06 04:51:28;;;;;;;5.60;2.20;;;;;;;5.75;78.75;98732.94;4932345;28;102814;-67
2024/03/06 04:53:57;;;;;;;6.20;2.45;;;;;;;5.78;78.31;98732.66;4932929;28;103909;-65
2024/03/06 04:56:25;;;;;;;5.68;2.50;;;;;;;5.84;78.73;98738.34;4919928;28;105324;-66
2024/03/06 04:58:56;;;;;;;5.07;2.28;;;;;;;5.84;79.13;98738.34;4921252;28;102796;-68
2024/03/06 05:01:24;;;;;;;8.48;2.97;;;;;;;5.72;79.14;98741.09;4905981;28;102953;-65
2024/03/06 05:03:53;;;;;;;5.55;2.30;;;;;;;5.74;79.27;98736.53;4919606;28;103708;-67
2024/03/06 05:06:38;;;;;;;;;;;;;;;5.71;79.16;98739.44;4902017;28;108635;-67
2024/03/06 05:09:25;;;;;;;5.40;2.40;;;;;;;5.72;79.45;98754.22;4919655;28;110405;-67
2024/03/06 05:12:11;;;;;;;3.75;2.20;;;;;;;5.73;79.58;98747.19;4916524;28;103055;-67
2024/03/06 05:14:57;;;;;;;4.95;2.45;;;;;;;5.70;79.69;98745.66;4918417;28;103263;-67
2024/03/06 05:17:43;;;;;;;6.60;3.20;;;;;;;5.64;79.67;98749.66;4927374;28;107611;-67
2024/03/06 05:20:30;;;;;;;10.07;2.72;;;;;;;5.71;80.47;98752.59;4925098;28;102716;-66
2024/03/06 05:23:17;;;;;;;7.85;2.88;;;;;;;5.75;79.58;98753.13;4928577;28;102800;-67
2024/03/06 05:26:05;;;;;;;6.95;2.40;;;;;;;5.75;79.15;98753.97;4915800;28;103433;-67
2024/03/06 05:28:50;;;;;;;7.80;2.67;;;;;;;5.71;79.67;98755.22;4918746;28;107761;-67
2024/03/06 05:31:37;;;;;;;7.95;2.97;;;;;;;5.62;80.12;98761.25;4917365;28;104434;-67
2024/03/06 05:34:22;;;;;;;7.55;3.20;;;;;;;5.61;80.80;98762.25;4908916;28;102674;-67
2024/03/06 05:37:09;;;;;;;7.53;3.58;;;;;;;5.54;80.94;98763.75;4922931;28;103309;-67
2024/03/06 05:39:55;;;;;;;9.40;3.13;;;;;;;5.57;80.90;98759.06;4920875;28;107741;-61
2024/03/06 05:42:43;;;;;;;8.88;3.88;;;;;;;5.57;80.63;98763.50;4914642;28;105264;-62
2024/03/06 05:45:28;;;;;;;5.20;2.95;;;;;;;5.62;80.57;98769.13;4901063;28;102844;-61
2024/03/06 05:48:14;;;;;;;;;;;;;;;5.51;80.90;98769.28;4895429;28;103377;-62
2024/03/06 05:50:59;;;;;;;10.70;4.38;;;;;;;5.54;80.61;98763.75;4896714;28;103997;-62
2024/03/06 05:53:45;;;;;;;;;;;;;;;5.42;81.24;98770.91;4891817;28;103217;-62
2024/03/06 05:56:31;;;;;;;12.00;4.25;;;;;;;5.28;81.69;98772.94;4890296;28;103006;-62
2024/03/06 05:59:18;;;;;;;7.93;3.75;;;;;;;5.26;81.29;98776.66;4914791;28;105283;-61
2024/03/06 06:01:47;;;;;;;7.68;3.38;;;;;;;5.46;81.66;98788.91;4917100;28;103260;-61
2024/03/06 06:04:15;;;;;;;10.75;4.30;;;;;;;5.41;81.25;98785.84;4914895;28;102635;-62
2024/03/06 06:06:45;;;;;;;7.30;3.63;;;;;;;5.53;80.65;98789.19;4931693;28;102971;-62
2024/03/06 06:09:15;;;;;;;13.55;3.55;;;;;;;5.44;81.10;98801.31;4927891;28;103523;-62
2024/03/06 06:11:44;;;;;;;7.95;3.63;;;;;;;5.44;80.93;98798.69;4926409;28;103365;-61
2024/03/06 06:14:12;;;;;;;7.03;3.72;;;;;;;5.39;81.45;98808.75;4914073;28;103337;-62
2024/03/06 06:16:43;;;;;;;7.20;3.60;;;;;;;5.39;81.06;98803.50;4923762;28;102812;-62
2024/03/06 06:19:11;;;;;;;10.18;3.40;;;;;;;5.48;81.14;98807.97;4909969;28;106232;-61
2024/03/06 06:21:39;;;;;;;6.88;3.22;;;;;;;5.53;80.66;98814.63;4882413;28;103472;-62
2024/03/06 06:24:09;;;;;;;7.63;2.88;;;;;;;5.58;80.68;98820.31;4891604;28;102749;-62
2024/03/06 06:26:37;;;;;;;7.53;2.97;;;;;;;5.59;80.91;98824.59;4900000;28;102796;-62
2024/03/06 06:29:05;;;;;;;10.90;3.78;;;;;;;5.57;81.41;98826.53;4914587;28;103676;-62
2024/03/06 06:31:33;;;;;;;7.05;3.42;;;;;;;5.58;80.39;98833.44;4923547;28;103228;-62
2024/03/06 06:34:03;;;;;;;8.13;3.70;;;;;;;5.61;80.66;98839.25;4929801;28;103862;-61
2024/03/06 06:36:31;;;;;;;6.80;3.13;;;;;;;5.71;80.34;98835.84;4920100;28;103455;-62
2024/03/06 06:38:59;;;;;;;8.60;3.22;;;;;;;5.68;79.62;98836.94;4909966;28;103323;-68
2024/03/06 06:41:32;;;;;;;6.60;3.47;;;;;;;5.63;79.83;98837.34;4920421;28;103326;-68
2024/03/06 06:44:00;;;;;;;8.13;3.22;;;;;;;5.65;80.48;98839.84;4932878;28;102787;-68
2024/03/06 06:46:29;;;;;;;7.18;3.17;;;;;;;5.73;80.33;98841.81;4940651;28;104335;-68
2024/03/06 06:48:57;;;;;;;6.63;3.60;;;;;;;5.70;79.72;98837.66;4920822;28;103189;-68
2024/03/06 06:51:26;;;;;;;7.68;3.15;;;;;;;5.82;80.23;98836.56;4926047;28;103320;-67
2024/03/06 06:53:55;;;;;;;5.75;3.10;;;;;;;5.86;80.15;98846.81;4930923;28;103084;-69
2024/03/06 06:56:27;;;;;;;6.32;3.35;;;;;;;5.85;79.93;98842.53;4917349;28;102790;-68
2024/03/06 06:58:56;;;;;;;7.30;3.33;;;;;;;5.53;80.79;98843.50;4930688;28;103307;-68
2024/03/06 07:01:24;;;;;;;7.43;3.70;;;;;;;5.48;81.56;98844.75;4913470;28;103853;-68
2024/03/06 07:03:52;;;;;;;8.30;3.97;;;;;;;5.48;81.63;98849.19;4922837;28;102729;-68
2024/03/06 07:06:20;;;;;;;8.50;3.47;;;;;;;5.70;81.61;98847.31;4933692;28;102801;-68
2024/03/06 07:08:52;;;;;;;9.77;3.88;;;;;;;5.24;82.12;98852.94;4928941;28;103233;-69
2024/03/06 07:11:21;;;;;;;9.02;4.53;;;;;;;5.26;82.38;98856.25;4927426;28;105995;-68
2024/03/06 07:13:49;;;;;;;10.70;5.30;;;;;;;5.39;82.30;98856.03;4930525;28;102912;-68
2024/03/06 07:16:19;;;;;;;8.80;3.95;;;;;;;5.48;82.14;98852.63;4930196;28;102758;-68
2024/03/06 07:18:47;;;;;;;8.77;3.65;;;;;;;5.68;82.44;98849.25;4929233;28;106379;-69
2024/03/06 07:21:16;;;;;;;10.32;3.75;;;;;;;5.63;81.58;98857.53;4935932;28;105335;-68
2024/03/06 07:23:44;;;;;;;11.07;3.78;;;;;;;5.61;81.75;98852.41;4933671;28;103026;-68
2024/03/06 07:26:14;;;;;;;7.70;3.55;;;;;;;5.48;82.02;98857.06;4922634;28;103065;-68
2024/03/06 07:28:45;;;;;;;8.07;3.78;;;;;;;5.39;81.77;98860.47;4936894;28;103873;-68
2024/03/06 07:31:13;;;;;;;8.65;4.25;;;;;;;5.31;82.88;98859.31;4937498;28;102750;-68
2024/03/06 07:33:41;;;;;;;9.05;4.13;;;;;;;5.54;82.78;98859.16;4931793;28;102734;-68
2024/03/06 07:36:10;;;;;;;9.93;3.67;;;;;;;5.33;82.24;98859.19;4935446;28;105126;-68
2024/03/06 07:38:38;;;;;;;8.60;3.90;;;;;;;5.36;82.50;98872.06;4937458;28;109233;-69
2024/03/06 07:41:06;;;;;;;7.75;3.63;;;;;;;5.33;82.74;98872.31;4915987;28;103240;-68
2024/03/06 07:43:36;;;;;;;9.63;3.85;;;;;;;5.41;82.59;98875.16;4937829;28;102767;-68
2024/03/06 07:46:10;;;;;;;10.77;3.90;;;;;;;5.54;81.93;98874.09;4928638;28;102759;-68
2024/03/06 07:48:38;;;;;;;9.68;4.07;;;;;;;5.38;82.87;98872.75;4927083;28;111235;-68
2024/03/06 07:51:08;;;;;;;10.05;4.20;;;;;;;5.60;82.68;98874.38;4924109;28;103278;-68
2024/03/06 07:53:36;;;;;;;10.02;3.65;;;;;;;5.43;82.73;98888.97;4941519;28;103575;-68
2024/03/06 07:56:04;;;;;;;7.93;3.92;;;;;;;5.58;82.42;98886.84;4924332;28;104958;-69
2024/03/06 07:58:32;;;;;;;11.15;4.25;;;;;;;5.48;82.09;98886.78;4929943;28;104853;-63
2024/03/06 08:01:02;;;;;;;9.93;4.28;;;;;;;5.45;83.08;98886.19;4929290;28;103456;-63
2024/03/06 08:03:30;;;;;;;7.20;3.80;;;;;;;5.50;82.45;98893.69;4921459;28;102695;-63
2024/03/06 08:05:58;;;;;;;8.25;3.90;;;;;;;5.35;82.57;98888.78;4931107;28;103098;-63
2024/03/06 08:08:28;;;;;;;10.15;3.75;;;;;;;5.35;82.77;98901.09;4927729;28;103300;-63
2024/03/06 08:10:57;;;;;;;6.63;3.80;;;;;;;5.50;82.79;98898.97;4931719;28;103507;-62
2024/03/06 08:13:25;;;;;;;8.98;4.68;;;;;;;5.48;82.50;98901.72;4948370;28;102838;-63
2024/03/06 08:15:53;;;;;;;11.95;4.05;;;;;;;5.46;82.66;98904.47;4930410;28;103194;-69
2024/03/06 08:18:23;;;;;;;8.25;4.53;;;;;;;5.68;82.71;98899.19;4933552;28;103577;-68
2024/03/06 08:20:52;;;;;;;10.65;4.20;;;;;;;5.62;82.29;98903.16;4934044;28;103418;-69
2024/03/06 08:23:21;;;;;;;14.57;4.90;;;;;;;5.46;83.26;98912.38;4931977;28;103275;-69
2024/03/06 08:25:49;;;;;;;8.27;3.90;;;;;;;5.76;82.82;98905.44;4928223;28;102995;-70
2024/03/06 08:28:17;;;;;;;7.05;3.83;;;;;;;5.60;82.99;98902.47;4924985;28;105285;-68
2024/03/06 08:30:45;;;;;;;7.68;4.15;;;;;;;5.64;83.29;98901.22;4926308;28;103382;-68
2024/03/06 08:33:13;;;;;;;7.68;4.28;;;;;;;5.78;83.17;98906.13;4930356;28;103018;-68
2024/03/06 08:35:43;;;;;;;9.77;4.00;;;;;;;5.97;82.24;98907.16;4931629;28;102759;-68
2024/03/06 08:38:11;;;;;;;10.90;4.38;;;;;;;5.88;81.49;98907.97;4915473;28;104384;-68
2024/03/06 08:40:41;;;;;;;14.05;4.38;;;;;;;5.92;82.34;98910.22;4936260;28;104137;-68
2024/03/06 08:43:15;;;;;;;9.88;3.83;;;;;;;5.93;81.79;98916.28;4923963;28;102779;-66
2024/03/06 08:45:43;;;;;;;7.80;3.75;;;;;;;5.87;82.45;98915.03;4930767;28;102777;-67
2024/03/06 08:48:12;;;;;;;16.42;3.85;;;;;;;5.93;82.01;98917.13;4926459;28;103247;-67
2024/03/06 08:50:40;;;;;;;9.98;3.60;;;;;;;6.12;82.13;98913.75;4918004;28;103476;-67
2024/03/06 08:53:10;;;;;;;8.73;3.92;;;;;;;5.79;82.53;98925.34;4932621;28;103177;-69
2024/03/06 08:55:38;;;;;;;8.23;3.90;;;;;;;6.08;82.24;98920.25;4930341;28;102901;-67
2024/03/06 08:58:07;;;;;;;9.35;4.38;;;;;;;5.96;82.13;98921.28;4916140;28;103150;-67
2024/03/06 09:00:36;;;;;;;6.70;4.13;;;;;;;5.58;82.42;98923.63;4930484;28;107952;-67
2024/03/06 09:03:05;;;;;;;12.38;5.00;;;;;;;5.73;82.59;98931.16;4933978;28;102880;-68
2024/03/06 09:05:33;;;;;;;8.55;4.10;;;;;;;5.66;82.52;98925.59;4929094;28;102950;-62
2024/03/06 09:08:01;;;;;;;11.25;4.43;;;;;;;5.81;82.81;98931.31;4927719;28;102808;-61
2024/03/06 09:10:33;;;;;;;7.97;3.40;;;;;;;6.09;81.80;98932.44;4920154;28;103313;-62
2024/03/06 09:13:01;;;;;;;10.68;4.80;;;;;;;5.81;81.70;98934.78;4929060;28;102923;-62
2024/03/06 09:15:29;;;;;;;8.18;4.60;;;;;;;5.58;82.20;98936.75;4922623;28;102667;-67
2024/03/06 09:17:57;;;;;;;9.27;4.88;;;;;;;5.61;83.55;98927.78;4935211;28;103277;-62
2024/03/06 09:20:26;;;;;;;8.30;4.63;;;;;;;5.73;82.66;98937.25;4925904;28;103279;-62
2024/03/06 09:22:56;;;;;;;9.85;4.80;;;;;;;5.86;82.97;98937.03;4928282;28;102738;-62
2024/03/06 09:25:25;;;;;;;9.50;4.80;;;;;;;5.63;83.19;98936.34;4928315;28;102742;-62
2024/03/06 09:27:59;;;;;;;7.93;4.43;;;;;;;5.92;82.67;98935.66;4926749;28;103566;-67
2024/03/06 09:30:28;;;;;;;6.22;3.75;;;;;;;5.90;83.24;98937.59;4908982;28;105034;-62
2024/03/06 09:32:56;;;;;;;8.35;4.38;;;;;;;5.89;83.02;98946.44;4912288;28;103716;-62
2024/03/06 09:35:27;;;;;;;8.45;4.05;;;;;;;5.90;82.96;98948.13;4921310;28;102963;-62
2024/03/06 09:37:57;;;;;;;13.30;5.50;;;;;;;5.75;82.81;98940.56;4924268;28;106238;-62
2024/03/06 09:40:26;;;;;;;9.50;4.00;;;;;;;6.05;82.39;98946.81;4928367;28;103251;-62
2024/03/06 09:42:54;;;;;;;9.73;5.50;;;;;;;5.97;81.79;98954.50;4928803;28;102630;-62
2024/03/06 09:45:24;;;;;;;10.43;4.93;;;;;;;5.89;82.47;98951.69;4922350;28;103013;-62
2024/03/06 09:47:53;;;;;;;9.65;4.88;;;;;;;6.03;82.25;98951.38;4931014;28;106201;-62
2024/03/06 09:50:26;;;;;;;8.48;5.07;;;;;;;5.98;81.94;98948.31;4926053;28;104121;-62
2024/03/06 09:52:56;;;;;;;11.40;6.97;;;;;;;5.82;82.32;98944.34;4918265;28;102898;-62
2024/03/06 09:55:27;;;;;;;11.57;6.05;;;;;;;5.81;83.09;98949.72;4944273;28;103793;-62
2024/03/06 09:57:55;;;;;;;12.45;7.85;;;;;;;5.87;82.97;98948.34;4925626;28;103817;-62
2024/03/06 10:00:28;;;;;;;11.60;6.25;;;;;;;5.91;82.85;98962.94;4924778;28;104943;-62
2024/03/06 10:02:59;;;;;;;9.35;6.10;;;;;;;6.03;82.88;98951.38;4925088;28;102689;-62
2024/03/06 10:05:28;;;;;;;10.40;6.00;;;;;;;6.13;82.19;98954.88;4914366;28;102737;-62
2024/03/06 10:07:58;;;;;;;10.18;6.75;;;;;;;6.14;81.64;98961.81;4926420;28;103708;-62
2024/03/06 10:10:26;;;;;;;13.23;7.80;;;;;;;6.00;82.79;98963.94;4921296;28;104659;-62
2024/03/06 10:12:59;;;;;;;12.65;7.38;;;;;;;6.03;83.54;98968.97;4938799;28;103077;-62
2024/03/06 10:15:35;;;;;;;12.45;8.40;;;;;;;6.08;82.78;98957.06;4923999;28;103401;-67
2024/03/06 10:18:15;;;;;;;10.90;8.48;;;;;;;6.24;82.69;98961.00;4913933;28;103116;-62
2024/03/06 10:20:44;;;;;;;12.48;8.45;;;;;;;6.01;82.60;98963.81;4922761;28;111137;-71
2024/03/06 10:23:13;;;;;;;13.32;8.57;;;;;;;6.05;83.01;98967.88;4929681;28;103141;-62
2024/03/06 10:25:50;;;;;;;12.52;8.65;;;;;;;6.28;83.09;98967.66;4931254;28;102684;-62
2024/03/06 10:28:19;;;;;;;16.63;9.02;;;;;;;6.16;82.64;98960.81;4925944;28;103502;-68
2024/03/06 10:30:49;;;;;;;12.68;8.07;;;;;;;6.29;83.16;98959.63;4926433;28;105647;-69
2024/03/06 10:33:19;;;;;;;17.15;10.27;;;;;;;6.14;82.88;98961.81;4932804;28;102631;-68
2024/03/06 10:35:49;;;;;;;16.25;11.05;;;;;;;6.36;81.72;98959.91;4931949;28;102852;-68
2024/03/06 10:38:17;;;;;;;17.73;11.02;;;;;;;6.46;81.81;98960.78;4927746;28;105448;-68
2024/03/06 10:40:46;;;;;;;18.88;12.05;;;;;;;6.50;81.22;98961.34;4931395;28;105357;-68
2024/03/06 10:43:17;;;;;;;18.00;12.23;;;;;;;6.40;81.35;98966.56;4920778;28;103048;-68
2024/03/06 10:45:50;;;;;;;19.15;12.32;;;;;;;6.43;82.48;98960.19;4930668;28;102976;-68
2024/03/06 10:48:19;;;;;;;14.90;11.25;;;;;;;6.52;82.19;98974.34;4922208;28;104740;-68
2024/03/06 10:50:49;;;;;;;22.17;14.20;;;;;;;6.48;82.19;98960.63;4924887;28;103862;-69
2024/03/06 10:53:19;;;;;;;20.20;13.82;;;;;;;6.32;82.18;98968.22;4927498;28;102951;-61
2024/03/06 10:55:52;;;;;;;19.65;12.85;;;;;;;6.40;81.78;98969.19;4913915;28;103041;-62
2024/03/06 10:58:21;;;;;;;15.45;12.23;;;;;;;6.50;82.41;98971.00;4911938;28;104085;-62
2024/03/06 11:00:52;;;;;;;19.08;13.55;;;;;;;6.43;81.53;98971.56;4924551;28;103381;-61
2024/03/06 11:03:21;;;;;;;19.50;13.40;;;;;;;6.45;81.87;98969.63;4925648;28;102870;-68
2024/03/06 11:05:50;;;;;;;16.92;13.13;;;;;;;6.68;82.13;98974.69;4951609;28;102835;-68
2024/03/06 11:08:20;;;;;;;22.40;14.00;;;;;;;6.59;81.97;98970.19;4921078;28;107345;-68
2024/03/06 11:10:51;;;;;;;21.02;13.60;;;;;;;6.57;82.25;98972.16;4939860;28;103426;-68
2024/03/06 11:13:24;;;;;;;19.77;13.57;;;;;;;6.66;82.12;98971.34;4937115;28;102800;-68
2024/03/06 11:15:58;;;;;;;22.60;16.60;;;;;;;6.39;82.19;98978.09;4936113;28;102752;-69
2024/03/06 11:18:45;;;;;;;21.77;15.80;;;;;;;6.45;82.91;98969.63;4937477;28;105501;-68
2024/03/06 11:21:32;;;;;;;24.13;16.92;;;;;;;6.40;81.67;98971.00;4938580;28;103364;-62
2024/03/06 11:24:20;;;;;;;23.50;16.40;;;;;;;6.58;82.43;98973.81;4928109;28;102954;-62
2024/03/06 11:26:57;;;;;;;21.73;15.55;;;;;;;6.65;82.06;98974.94;4924253;28;102801;-62
2024/03/06 11:29:29;;;;;;;21.23;16.00;;;;;;;6.69;81.79;98971.06;4916499;28;103541;-62
2024/03/06 11:32:07;;;;;;;30.90;18.45;;;;;;;6.57;82.14;98975.59;4876183;28;103530;-62
2024/03/06 11:34:38;;;;;;;26.40;17.92;;;;;;;6.22;83.31;98973.44;4906253;28;103290;-61
2024/03/06 11:37:09;;;;;;;26.67;20.17;;;;;;;6.35;82.55;98979.28;4886860;28;104287;-61
2024/03/06 11:39:40;;;;;;;28.60;20.42;;;;;;;6.52;82.91;98980.44;4898347;28;107780;-61
2024/03/06 11:42:09;;;;;;;23.77;16.25;;;;;;;6.64;83.04;98973.25;4890917;28;103116;-62
2024/03/06 11:44:53;;;;;;;25.23;18.67;;;;;;;6.36;82.30;98985.41;4905194;28;102800;-62
2024/03/06 11:47:24;;;;;;;23.83;18.35;;;;;;;6.11;83.11;98980.47;4906471;28;103678;-62